Terminal Aerodrome Forecast
Issued by NWS

Home | Current Version | Previous Version | Text Only | Print | Product List | Glossary On
Versions: 1 2 3 4 5 6 7 8 9 10 11 12 13
942
FTUS46 KMFR 181139
TAFOTH
TAF
KOTH 181139Z 1812/1912 19011KT P6SM -SHRA BKN020 OVC040
     FM182100 25014G22KT P6SM -SHRA BKN035 OVC060
     FM190400 19009KT P6SM -SHRA BKN035 OVC050=

USA.gov is the U.S. government's official web portal to all federal, state and local government web resources and services.